createdAt,value
2018-08-11T00:00:17.517Z,14.30
2018-08-11T00:02:45.782Z,14.20
2018-08-11T00:05:14.099Z,14.30
2018-08-11T00:07:42.337Z,14.30
2018-08-11T00:10:10.638Z,14.40
2018-08-11T00:12:38.889Z,14.40
2018-08-11T00:15:09.596Z,14.40
2018-08-11T00:17:38.091Z,14.30
2018-08-11T00:20:08.454Z,14.30
2018-08-11T00:22:36.674Z,14.30
2018-08-11T00:25:05.330Z,14.10
2018-08-11T00:27:33.530Z,14.10
2018-08-11T00:30:02.538Z,14.20
2018-08-11T00:32:30.750Z,14.10
2018-08-11T00:34:59.793Z,14.10
2018-08-11T00:37:28.037Z,14.10
2018-08-11T00:39:56.296Z,14.10
2018-08-11T00:42:24.617Z,14.20
2018-08-11T00:44:52.889Z,14.20
2018-08-11T00:47:21.177Z,14.20
2018-08-11T00:49:49.434Z,14.20
2018-08-11T00:52:17.683Z,14.30
2018-08-11T00:54:45.918Z,14.40
2018-08-11T00:57:14.156Z,14.40
2018-08-11T00:59:42.357Z,14.40
2018-08-11T01:02:10.591Z,14.50
2018-08-11T01:04:38.785Z,14.50
2018-08-11T01:07:07.022Z,14.60
2018-08-11T01:09:35.234Z,14.60
2018-08-11T01:12:03.457Z,14.60
2018-08-11T01:14:31.677Z,14.50
2018-08-11T01:16:59.941Z,14.50
2018-08-11T01:19:28.268Z,14.50
2018-08-11T01:21:56.557Z,14.40
2018-08-11T01:24:24.817Z,14.40
2018-08-11T01:26:53.077Z,14.40
2018-08-11T01:29:21.346Z,14.40
2018-08-11T01:31:49.605Z,14.30
2018-08-11T01:34:17.845Z,14.40
2018-08-11T01:36:46.094Z,14.40
2018-08-11T01:39:14.382Z,14.40
2018-08-11T01:41:42.584Z,14.40
2018-08-11T01:44:10.844Z,14.40
2018-08-11T01:46:39.045Z,14.50
2018-08-11T01:49:07.345Z,14.50
2018-08-11T01:51:35.629Z,14.60
2018-08-11T01:54:03.888Z,14.50
2018-08-11T01:56:32.101Z,14.40
2018-08-11T01:59:00.347Z,14.40
2018-08-11T02:01:28.608Z,14.40
2018-08-11T02:03:56.957Z,14.40
2018-08-11T02:06:25.234Z,14.50
2018-08-11T02:08:53.565Z,14.50
2018-08-11T02:11:21.975Z,14.50
2018-08-11T02:13:50.287Z,14.50
2018-08-11T02:16:18.533Z,14.50
2018-08-11T02:18:46.786Z,14.50
2018-08-11T02:21:15.070Z,14.50
2018-08-11T02:23:43.315Z,14.60
2018-08-11T02:26:11.557Z,14.60
2018-08-11T02:28:39.818Z,14.60
2018-08-11T02:33:36.126Z,14.60
2018-08-11T02:36:04.348Z,14.50
2018-08-11T02:38:32.663Z,14.40
2018-08-11T02:41:00.970Z,14.50
2018-08-11T02:43:29.239Z,14.50
2018-08-11T02:45:57.581Z,14.50
2018-08-11T02:48:25.836Z,14.50
2018-08-11T02:50:54.083Z,14.50
2018-08-11T02:53:22.380Z,14.50
2018-08-11T02:55:50.729Z,14.50
2018-08-11T02:58:18.945Z,14.40
2018-08-11T03:00:47.199Z,14.40
2018-08-11T03:03:15.423Z,14.40
2018-08-11T03:05:43.741Z,14.50
2018-08-11T03:08:12.054Z,14.40
2018-08-11T03:10:40.278Z,14.30
2018-08-11T03:13:08.470Z,14.30
2018-08-11T03:15:36.715Z,14.30
2018-08-11T03:18:05.053Z,14.30
2018-08-11T03:20:33.336Z,14.20
2018-08-11T03:23:01.582Z,14.20
2018-08-11T03:25:29.807Z,14.20
2018-08-11T03:27:58.083Z,14.10
2018-08-11T03:30:26.328Z,14.20
2018-08-11T03:32:54.509Z,14.20
2018-08-11T03:35:22.924Z,14.20
2018-08-11T03:37:51.156Z,14.10
2018-08-11T03:40:19.358Z,14.10
2018-08-11T03:42:47.582Z,14.20
2018-08-11T03:45:15.892Z,14.20
2018-08-11T03:47:44.103Z,14.10
2018-08-11T03:50:12.309Z,14.10
2018-08-11T03:52:40.521Z,14.10
2018-08-11T03:55:08.729Z,14.00
2018-08-11T03:57:36.982Z,14.10
2018-08-11T04:00:07.920Z,14.00
2018-08-11T04:02:36.141Z,14.00
2018-08-11T04:05:04.361Z,14.00
2018-08-11T04:07:32.688Z,13.90
2018-08-11T04:10:01.445Z,13.90
2018-08-11T04:12:30.227Z,13.90
2018-08-11T04:14:58.513Z,13.90
2018-08-11T04:17:31.015Z,13.90
2018-08-11T04:19:59.293Z,13.80
2018-08-11T04:22:27.567Z,13.90
2018-08-11T04:24:55.803Z,13.80
2018-08-11T04:27:24.075Z,13.90
2018-08-11T04:29:52.342Z,13.90
2018-08-11T04:32:20.569Z,13.90
2018-08-11T04:34:48.859Z,13.90
2018-08-11T04:37:17.155Z,13.80
2018-08-11T04:39:45.395Z,13.80
2018-08-11T04:42:13.671Z,13.90
2018-08-11T04:44:41.901Z,13.90
2018-08-11T04:47:10.114Z,13.90
2018-08-11T04:49:38.329Z,13.90
2018-08-11T04:52:06.565Z,13.90
2018-08-11T04:54:34.762Z,13.90
2018-08-11T04:57:03.017Z,13.90
2018-08-11T04:59:31.294Z,13.80
2018-08-11T05:01:59.545Z,13.90
2018-08-11T05:04:27.773Z,13.90
2018-08-11T05:06:56.024Z,14.00
2018-08-11T05:09:24.266Z,14.00
2018-08-11T05:11:52.601Z,14.10
2018-08-11T05:14:20.821Z,14.20
2018-08-11T05:16:49.101Z,14.30
2018-08-11T05:19:17.317Z,14.30
2018-08-11T05:21:45.591Z,14.40
2018-08-11T05:24:13.825Z,14.30
2018-08-11T05:26:42.042Z,14.40
2018-08-11T05:29:10.289Z,14.40
2018-08-11T05:31:38.536Z,14.40
2018-08-11T05:34:06.841Z,14.50
2018-08-11T05:36:35.104Z,14.50
2018-08-11T05:39:04.086Z,14.60
2018-08-11T05:41:32.342Z,14.60
2018-08-11T05:44:00.641Z,14.60
2018-08-11T05:46:28.896Z,14.80
2018-08-11T05:48:57.166Z,14.80
2018-08-11T05:51:25.418Z,14.90
2018-08-11T05:53:53.696Z,15.00
2018-08-11T05:56:21.961Z,15.10
2018-08-11T05:58:50.262Z,15.20
2018-08-11T06:01:18.525Z,15.20
2018-08-11T06:03:46.773Z,15.30
2018-08-11T06:06:15.021Z,15.30
2018-08-11T06:08:43.370Z,15.30
2018-08-11T06:11:11.662Z,15.30
2018-08-11T06:13:39.902Z,15.40
2018-08-11T06:16:08.118Z,15.40
2018-08-11T06:18:36.397Z,15.50
2018-08-11T06:21:04.693Z,15.50
2018-08-11T06:23:40.475Z,15.50
2018-08-11T06:26:08.714Z,15.70
2018-08-11T06:28:36.977Z,15.70
2018-08-11T06:31:05.249Z,15.90
2018-08-11T06:33:33.554Z,16.00
2018-08-11T06:36:01.754Z,16.00
2018-08-11T06:38:29.989Z,16.10
2018-08-11T06:40:58.304Z,16.20
2018-08-11T06:43:26.453Z,16.20
2018-08-11T06:45:54.753Z,16.30
2018-08-11T06:48:22.998Z,16.40
2018-08-11T06:50:51.254Z,16.50
2018-08-11T06:53:19.482Z,16.60
2018-08-11T06:55:47.754Z,16.90
2018-08-11T06:58:16.045Z,17.30
2018-08-11T07:00:44.313Z,17.90
2018-08-11T07:03:12.523Z,18.40
2018-08-11T07:05:40.849Z,19.30
2018-08-11T07:08:09.098Z,19.70
2018-08-11T07:10:37.433Z,20.50
2018-08-11T07:13:05.650Z,20.60
2018-08-11T07:15:34.109Z,20.90
2018-08-11T07:18:11.592Z,20.90
2018-08-11T07:20:39.812Z,21.10
2018-08-11T07:23:08.006Z,21.20
2018-08-11T07:25:36.260Z,21.20
2018-08-11T07:28:04.573Z,20.90
2018-08-11T07:30:32.788Z,20.70
2018-08-11T07:33:00.993Z,20.70
2018-08-11T07:35:29.286Z,20.50
2018-08-11T07:37:58.812Z,20.40
2018-08-11T07:40:27.209Z,20.50
2018-08-11T07:42:55.488Z,20.60
2018-08-11T07:45:23.793Z,20.50
2018-08-11T07:47:52.052Z,20.20
2018-08-11T07:50:20.322Z,19.90
2018-08-11T07:52:48.699Z,19.40
2018-08-11T07:55:17.074Z,19.30
2018-08-11T07:57:45.406Z,19.30
2018-08-11T08:00:13.684Z,19.20
2018-08-11T08:02:41.965Z,19.00
2018-08-11T08:05:10.177Z,19.20
2018-08-11T08:07:38.433Z,19.40
2018-08-11T08:10:07.273Z,19.40
2018-08-11T08:12:35.573Z,19.30
2018-08-11T08:15:04.477Z,19.10
2018-08-11T08:17:32.741Z,19.20
2018-08-11T08:20:00.998Z,19.30
2018-08-11T08:22:29.361Z,19.20
2018-08-11T08:24:57.585Z,19.00
2018-08-11T08:27:25.884Z,18.80
2018-08-11T08:29:54.165Z,18.80
2018-08-11T08:32:22.394Z,19.00
2018-08-11T08:34:50.698Z,19.40
2018-08-11T08:37:18.997Z,19.80
2018-08-11T08:39:47.290Z,20.00
2018-08-11T08:42:15.539Z,19.90
2018-08-11T08:44:43.845Z,20.00
2018-08-11T08:47:12.212Z,19.90
2018-08-11T08:49:40.499Z,20.10
2018-08-11T08:52:08.817Z,20.30
2018-08-11T08:54:37.109Z,20.50
2018-08-11T08:57:05.465Z,21.00
2018-08-11T08:59:33.692Z,21.20
2018-08-11T09:02:01.929Z,20.90
2018-08-11T09:04:30.201Z,20.70
2018-08-11T09:06:58.401Z,20.90
2018-08-11T09:09:26.649Z,20.90
2018-08-11T09:11:54.956Z,20.60
2018-08-11T09:14:23.160Z,20.90
2018-08-11T09:16:51.682Z,21.60
2018-08-11T09:19:19.994Z,22.10
2018-08-11T09:21:48.866Z,22.60
2018-08-11T09:24:17.641Z,23.00
2018-08-11T09:26:45.842Z,23.00
2018-08-11T09:29:14.136Z,22.50
2018-08-11T09:31:42.309Z,22.80
2018-08-11T09:34:10.578Z,22.90
2018-08-11T09:36:38.816Z,22.90
2018-08-11T09:39:08.214Z,23.40
2018-08-11T09:41:36.433Z,23.90
2018-08-11T09:44:04.664Z,24.10
2018-08-11T09:46:32.912Z,23.50
2018-08-11T09:49:01.173Z,22.70
2018-08-11T09:51:29.397Z,22.00
2018-08-11T09:53:57.694Z,21.80
2018-08-11T09:56:26.197Z,21.90
2018-08-11T09:58:54.397Z,22.50
2018-08-11T10:01:27.999Z,22.90
2018-08-11T10:03:56.245Z,23.10
2018-08-11T10:06:24.443Z,23.20
2018-08-11T10:08:52.770Z,23.50
2018-08-11T10:11:20.976Z,23.60
2018-08-11T10:13:49.831Z,23.80
2018-08-11T10:16:18.412Z,24.00
2018-08-11T10:18:46.664Z,23.40
2018-08-11T10:21:14.974Z,23.10
2018-08-11T10:23:43.188Z,23.40
2018-08-11T10:26:11.459Z,23.40
2018-08-11T10:28:39.766Z,23.60
2018-08-11T10:31:07.977Z,23.90
2018-08-11T10:33:36.315Z,24.00
2018-08-11T10:36:04.600Z,23.80
2018-08-11T10:41:24.230Z,23.00
2018-08-11T10:43:52.585Z,22.90
2018-08-11T10:46:20.793Z,23.10
2018-08-11T10:51:17.117Z,22.90
2018-08-11T10:53:45.325Z,23.10
2018-08-11T10:56:13.525Z,23.20
2018-08-11T10:58:41.738Z,23.20
2018-08-11T11:01:10.096Z,23.50
2018-08-11T11:03:38.299Z,23.50
2018-08-11T11:06:06.213Z,23.40
2018-08-11T11:08:34.458Z,23.40
2018-08-11T11:11:02.686Z,23.50
2018-08-11T11:15:58.958Z,23.00
2018-08-11T11:18:27.199Z,23.20
2018-08-11T11:20:55.496Z,23.20
2018-08-11T11:23:23.733Z,23.00
2018-08-11T11:25:51.979Z,22.90
2018-08-11T11:28:20.217Z,23.30
2018-08-11T11:30:48.605Z,23.60
2018-08-11T11:33:16.888Z,23.70
2018-08-11T11:35:45.158Z,23.90
2018-08-11T11:38:13.660Z,24.10
2018-08-11T11:40:41.869Z,24.00
2018-08-11T11:43:10.165Z,23.40
2018-08-11T11:45:38.540Z,22.80
2018-08-11T11:48:06.796Z,23.00
2018-08-11T11:50:35.152Z,22.60
2018-08-11T11:53:03.414Z,22.80
2018-08-11T11:55:31.619Z,22.90
2018-08-11T11:57:59.902Z,23.00
2018-08-11T12:00:28.150Z,23.00
2018-08-11T12:02:56.587Z,23.20
2018-08-11T12:05:24.829Z,23.30
2018-08-11T12:07:53.068Z,23.50
2018-08-11T12:10:21.344Z,23.40
2018-08-11T12:12:49.610Z,23.00
2018-08-11T12:15:18.235Z,22.80
2018-08-11T12:17:46.529Z,22.80
2018-08-11T12:20:14.735Z,23.10
2018-08-11T12:22:42.961Z,22.90
2018-08-11T12:25:11.293Z,23.20
2018-08-11T12:27:39.582Z,23.40
2018-08-11T12:30:09.297Z,23.40
2018-08-11T12:32:37.549Z,23.20
2018-08-11T12:35:05.852Z,23.10
2018-08-11T12:37:34.049Z,23.20
2018-08-11T12:40:02.350Z,23.40
2018-08-11T12:42:30.768Z,23.60
2018-08-11T12:44:59.021Z,23.80
2018-08-11T12:47:27.276Z,23.80
2018-08-11T12:49:55.558Z,23.60
2018-08-11T12:52:23.821Z,23.50
2018-08-11T12:54:52.091Z,23.20
2018-08-11T12:57:20.751Z,23.20
2018-08-11T12:59:48.949Z,23.20
2018-08-11T13:02:17.166Z,23.20
2018-08-11T13:04:45.374Z,23.10
2018-08-11T13:07:13.633Z,22.80
2018-08-11T13:09:42.349Z,23.00
2018-08-11T13:12:10.568Z,23.20
2018-08-11T13:14:38.797Z,23.10
2018-08-11T13:17:07.125Z,23.20
2018-08-11T13:19:35.401Z,23.30
2018-08-11T13:22:03.685Z,23.30
2018-08-11T13:24:32.066Z,23.30
2018-08-11T13:27:00.277Z,23.40
2018-08-11T13:29:28.593Z,23.10
2018-08-11T13:31:56.857Z,22.80
2018-08-11T13:34:25.413Z,22.60
2018-08-11T13:36:53.649Z,22.70
2018-08-11T13:39:21.910Z,22.80
2018-08-11T13:41:50.629Z,22.80
2018-08-11T13:44:19.821Z,22.70
2018-08-11T13:46:48.095Z,22.50
2018-08-11T13:49:16.380Z,22.50
2018-08-11T13:51:44.662Z,22.70
2018-08-11T13:54:12.933Z,22.80
2018-08-11T13:56:41.134Z,22.60
2018-08-11T13:59:09.396Z,22.30
2018-08-11T14:01:37.681Z,22.30
2018-08-11T14:04:05.929Z,22.30
2018-08-11T14:06:34.229Z,22.60
2018-08-11T14:09:02.503Z,22.70
2018-08-11T14:11:30.724Z,22.80
2018-08-11T14:13:58.921Z,22.70
2018-08-11T14:16:27.293Z,22.70
2018-08-11T14:18:55.500Z,22.80
2018-08-11T14:21:23.709Z,22.90
2018-08-11T14:23:51.946Z,23.00
2018-08-11T14:26:20.310Z,23.00
2018-08-11T14:28:48.642Z,22.70
2018-08-11T14:31:16.886Z,22.60
2018-08-11T14:33:45.130Z,22.50
2018-08-11T14:36:13.419Z,22.20
2018-08-11T14:38:42.315Z,22.20
2018-08-11T14:41:10.501Z,22.20
2018-08-11T14:43:38.819Z,22.30
2018-08-11T14:46:07.486Z,22.40
2018-08-11T14:48:35.713Z,22.30
2018-08-11T14:51:03.957Z,22.10
2018-08-11T14:53:32.357Z,21.80
2018-08-11T14:56:00.606Z,21.80
2018-08-11T14:58:28.933Z,21.80
2018-08-11T15:00:57.212Z,21.70
2018-08-11T15:03:25.625Z,21.90
2018-08-11T15:05:53.837Z,22.00
2018-08-11T15:08:22.189Z,21.90
2018-08-11T15:10:50.465Z,21.70
2018-08-11T15:13:18.813Z,21.70
2018-08-11T15:15:47.067Z,21.60
2018-08-11T15:18:15.355Z,21.60
2018-08-11T15:20:43.632Z,21.70
2018-08-11T15:23:11.867Z,21.80
2018-08-11T15:25:40.101Z,21.90
2018-08-11T15:28:08.404Z,21.90
2018-08-11T15:30:36.690Z,21.90
2018-08-11T15:33:04.976Z,21.60
2018-08-11T15:35:33.270Z,21.60
2018-08-11T15:38:01.658Z,21.70
2018-08-11T15:40:29.931Z,21.70
2018-08-11T15:42:58.264Z,21.80
2018-08-11T15:45:26.645Z,21.90
2018-08-11T15:47:54.874Z,21.80
2018-08-11T15:50:23.170Z,21.70
2018-08-11T15:52:51.402Z,21.70
2018-08-11T15:55:19.629Z,21.70
2018-08-11T15:57:47.898Z,21.70
2018-08-11T16:00:16.119Z,21.80
2018-08-11T16:02:44.342Z,21.60
2018-08-11T16:05:12.558Z,21.50
2018-08-11T16:07:40.797Z,21.60
2018-08-11T16:10:08.995Z,21.60
2018-08-11T16:12:37.228Z,21.60
2018-08-11T16:15:05.602Z,21.80
2018-08-11T16:17:33.849Z,21.80
2018-08-11T16:20:02.078Z,21.90
2018-08-11T16:22:30.348Z,21.70
2018-08-11T16:24:58.661Z,21.80
2018-08-11T16:27:26.900Z,21.40
2018-08-11T16:29:55.226Z,21.20
2018-08-11T16:32:23.427Z,21.20
2018-08-11T16:34:51.701Z,21.30
2018-08-11T16:37:19.969Z,21.40
2018-08-11T16:39:48.245Z,21.40
2018-08-11T16:42:16.575Z,21.30
2018-08-11T16:44:44.913Z,21.30
2018-08-11T16:47:13.166Z,21.30
2018-08-11T16:49:41.421Z,21.20
2018-08-11T16:52:10.217Z,21.20
2018-08-11T16:54:38.469Z,21.10
2018-08-11T16:57:06.665Z,21.00
2018-08-11T16:59:34.978Z,20.90
2018-08-11T17:02:03.141Z,20.90
2018-08-11T17:04:31.362Z,21.00
2018-08-11T17:06:59.580Z,21.00
2018-08-11T17:09:27.780Z,21.00
2018-08-11T17:11:56.065Z,20.90
2018-08-11T17:14:24.375Z,20.90
2018-08-11T17:16:52.685Z,20.90
2018-08-11T17:19:21.010Z,20.90
2018-08-11T17:21:49.314Z,20.90
2018-08-11T17:24:17.625Z,20.90
2018-08-11T17:26:45.914Z,20.70
2018-08-11T17:29:14.141Z,20.60
2018-08-11T17:31:42.365Z,20.60
2018-08-11T17:34:10.597Z,20.50
2018-08-11T17:36:38.885Z,20.50
2018-08-11T17:39:08.173Z,20.50
2018-08-11T17:41:36.433Z,20.60
2018-08-11T17:44:04.700Z,20.60
2018-08-11T17:46:32.898Z,20.60
2018-08-11T17:49:01.273Z,20.60
2018-08-11T17:51:29.499Z,20.50
2018-08-11T17:53:57.773Z,20.30
2018-08-11T17:56:26.032Z,20.40
2018-08-11T17:58:54.292Z,20.30
2018-08-11T18:01:22.593Z,20.20
2018-08-11T18:03:50.821Z,20.20
2018-08-11T18:06:19.098Z,20.20
2018-08-11T18:08:47.482Z,20.10
2018-08-11T18:11:15.769Z,20.00
2018-08-11T18:13:44.129Z,20.00
2018-08-11T18:16:12.344Z,20.40
2018-08-11T18:21:08.723Z,19.90
2018-08-11T18:23:37.085Z,19.70
2018-08-11T18:26:05.361Z,19.70
2018-08-11T18:28:33.617Z,19.70
2018-08-11T18:33:29.961Z,19.70
2018-08-11T18:35:58.217Z,19.60
2018-08-11T18:38:26.557Z,19.60
2018-08-11T18:40:54.842Z,19.50
2018-08-11T18:43:23.123Z,19.30
2018-08-11T18:45:51.919Z,19.30
2018-08-11T18:48:20.209Z,19.20
2018-08-11T18:50:48.467Z,19.20
2018-08-11T18:53:16.729Z,19.00
2018-08-11T18:55:44.958Z,18.90
2018-08-11T18:58:13.158Z,18.80
2018-08-11T19:00:41.434Z,18.80
2018-08-11T19:03:10.086Z,18.80
2018-08-11T19:05:38.317Z,18.80
2018-08-11T19:08:06.621Z,18.70
2018-08-11T19:10:34.837Z,18.80
2018-08-11T19:13:03.159Z,18.70
2018-08-11T19:15:31.669Z,18.60
2018-08-11T19:17:59.953Z,18.50
2018-08-11T19:20:28.314Z,18.50
2018-08-11T19:22:56.566Z,18.40
2018-08-11T19:25:24.839Z,18.40
2018-08-11T19:27:53.149Z,18.40
2018-08-11T19:30:21.531Z,18.30
2018-08-11T19:32:50.010Z,18.30
2018-08-11T19:35:18.342Z,18.20
2018-08-11T19:37:46.537Z,18.20
2018-08-11T19:40:14.794Z,18.10
2018-08-11T19:42:43.113Z,18.00
2018-08-11T19:45:12.239Z,18.10
2018-08-11T19:47:40.862Z,18.10
2018-08-11T19:50:10.662Z,17.90
2018-08-11T19:52:39.117Z,17.90
2018-08-11T19:55:07.920Z,17.80
2018-08-11T19:57:36.273Z,17.80
2018-08-11T20:00:10.209Z,17.80
2018-08-11T20:02:38.870Z,17.80
2018-08-11T20:05:07.371Z,17.80
2018-08-11T20:07:35.586Z,17.70
2018-08-11T20:10:04.404Z,17.70
2018-08-11T20:12:32.790Z,17.60
2018-08-11T20:15:01.010Z,17.60
2018-08-11T20:17:29.265Z,17.60
2018-08-11T20:19:57.601Z,17.60
2018-08-11T20:22:25.796Z,17.50
2018-08-11T20:24:54.193Z,17.50
2018-08-11T20:27:22.481Z,17.50
2018-08-11T20:29:50.732Z,17.40
2018-08-11T20:32:19.002Z,17.30
2018-08-11T20:34:47.299Z,17.30
2018-08-11T20:37:15.937Z,17.20
2018-08-11T20:39:44.193Z,17.10
2018-08-11T20:42:12.461Z,17.10
2018-08-11T20:44:40.874Z,17.10
2018-08-11T20:47:09.245Z,17.00
2018-08-11T20:49:37.474Z,16.60
2018-08-11T20:52:05.861Z,16.90
2018-08-11T20:54:34.573Z,16.90
2018-08-11T20:57:03.074Z,16.90
2018-08-11T20:59:31.318Z,16.80
2018-08-11T21:01:59.918Z,16.80
2018-08-11T21:04:28.809Z,16.80
2018-08-11T21:06:57.429Z,16.80
2018-08-11T21:09:26.051Z,16.80
2018-08-11T21:11:54.515Z,16.90
2018-08-11T21:14:24.163Z,16.90
2018-08-11T21:16:53.250Z,16.90
2018-08-11T21:19:21.719Z,16.80
2018-08-11T21:21:50.339Z,16.80
2018-08-11T21:24:18.766Z,16.70
2018-08-11T21:26:47.324Z,16.80
2018-08-11T21:29:15.806Z,16.80
2018-08-11T21:31:44.403Z,16.80
2018-08-11T21:34:13.162Z,16.80
2018-08-11T21:36:41.567Z,16.80
2018-08-11T21:39:13.388Z,16.70
2018-08-11T21:41:41.895Z,16.80
2018-08-11T21:44:10.430Z,16.80
2018-08-11T21:46:39.029Z,16.80
2018-08-11T21:49:08.677Z,16.70
2018-08-11T21:51:36.917Z,16.80
2018-08-11T21:54:05.148Z,16.80
2018-08-11T21:56:33.463Z,16.70
2018-08-11T21:59:01.725Z,16.80
2018-08-11T22:01:30.527Z,16.80
2018-08-11T22:03:59.873Z,16.80
2018-08-11T22:06:29.508Z,16.80
2018-08-11T22:08:58.623Z,16.70
2018-08-11T22:11:28.456Z,16.80
2018-08-11T22:13:56.758Z,16.70
2018-08-11T22:17:02.714Z,16.60
2018-08-11T22:19:30.998Z,16.70
2018-08-11T22:21:59.218Z,16.70
2018-08-11T22:24:27.465Z,16.60
2018-08-11T22:26:55.714Z,16.60
2018-08-11T22:29:24.042Z,16.60
2018-08-11T22:31:55.672Z,16.70
2018-08-11T22:34:25.317Z,16.60
2018-08-11T22:36:55.038Z,16.70
2018-08-11T22:39:24.498Z,16.70
2018-08-11T22:41:54.467Z,16.70
2018-08-11T22:44:24.886Z,16.60
2018-08-11T22:46:55.411Z,16.70
2018-08-11T22:49:24.669Z,16.80
2018-08-11T22:51:54.328Z,16.70
2018-08-11T22:56:46.644Z,16.70
2018-08-11T22:59:14.897Z,16.70
2018-08-11T23:01:43.164Z,16.70
2018-08-11T23:04:11.525Z,16.70
2018-08-11T23:06:39.781Z,16.70
2018-08-11T23:09:08.101Z,16.70
2018-08-11T23:11:36.363Z,16.70
2018-08-11T23:14:04.593Z,16.70
2018-08-11T23:16:32.873Z,16.70
2018-08-11T23:19:01.081Z,16.70
2018-08-11T23:21:29.281Z,16.70
2018-08-11T23:23:57.501Z,16.60
2018-08-11T23:26:27.389Z,16.60
2018-08-11T23:28:55.612Z,16.70
2018-08-11T23:31:23.833Z,16.60
2018-08-11T23:33:52.121Z,16.70
2018-08-11T23:36:20.341Z,16.80
2018-08-11T23:38:48.641Z,16.80
2018-08-11T23:41:16.843Z,16.60
2018-08-11T23:43:45.142Z,16.60
2018-08-11T23:46:13.394Z,16.60
2018-08-11T23:48:41.614Z,16.60
2018-08-11T23:51:09.901Z,16.50
2018-08-11T23:53:38.117Z,16.60
2018-08-11T23:56:06.565Z,16.50
2018-08-11T23:58:34.769Z,16.40
